Martine P — 2FIL4 — position and weather

sailwx.info

Track history (hours):
 
Tides and Currents Weather Stations Pressure Air Temp Water Temp Dewpoint Dewpoint Depression Visibility Wind Speed Wind Dir Waves Ship Positions

Martine P

Last reported at 2016-Jul-30 16:33 UTC. Time now 2016-Jul-30 16:52 UTC.
Position N 51°38' E 002°28'.

Length 27 m; draft 3 m.

Type: Tug. MMSI: 235091541.

Date/timePositionNaut miles runAvg speedWind from/ knotsBaromVisibWave heightAir tempDewpointWater temp
2016-Jul-30 16:33N 51°38' E 002°28'6 5.6
2016-Jul-30 15:33N 51°34' E 002°22'6 6.1
2016-Jul-30 14:33N 51°29' E 002°16'7 6.8
2016-Jul-30 13:34N 51°23' E 002°10'7 7.3
2016-Jul-30 12:33N 51°16' E 002°06'8 7.9
2016-Jul-30 11:33N 51°11' E 001°56'8 8.3
2016-Jul-30 10:33N 51°05' E 001°47'9 9.1
2016-Jul-30 09:33N 50°59' E 001°37'80 7.0
2016-Jul-29 22:08N 50°16' W 000°10'123 7.0
2016-Jul-29 04:33N 49°51' W 003°17'8 7.5
2016-Jul-29 03:29N 49°52' W 003°29'45 7.5
2016-Jul-28 21:34N 49°50' W 004°38'225 4.6
2016-Jul-26 20:24N 53°34' W 003°57'6 7.4
2016-Jul-26 19:33N 53°33' W 003°46'8 7.6
2016-Jul-26 18:34N 53°33' W 003°34'8 7.7
2016-Jul-26 17:33N 53°32' W 003°21'7 6.9
2016-Jul-26 16:33N 53°32' W 003°09'6 6.5
2016-Jul-26 15:33N 53°27' W 003°02'4 4.0
2016-Jul-26 14:33N 53°23' W 003°01'0 0.0
2016-Jul-26 13:33N 53°23' W 003°01'0 0.0
2016-Jul-26 12:34N 53°23' W 003°01'0 0.0
2016-Jul-26 11:33N 53°23' W 003°01'0 0.0
2016-Jul-26 10:33N 53°23' W 003°01'0 0.0
2016-Jul-26 09:33N 53°23' W 003°01'0 0.0
2016-Jul-26 08:33N 53°23' W 003°01'0 0.0
2016-Jul-26 07:33N 53°23' W 003°01'0 0.0
2016-Jul-26 06:33N 53°23' W 003°01'0 0.0
2016-Jul-26 05:33N 53°23' W 003°01'0 0.0
2016-Jul-26 04:33N 53°23' W 003°01'0 0.0
2016-Jul-26 03:33N 53°23' W 003°01'0 0.0
2016-Jul-26 02:33N 53°23' W 003°01'0 0.0
2016-Jul-26 01:33N 53°23' W 003°01'0 0.0
2016-Jul-26 00:33N 53°23' W 003°01'0 0.0
2016-Jul-25 23:33N 53°23' W 003°01'0 0.0
2016-Jul-25 22:33N 53°23' W 003°01'0 0.0
2016-Jul-25 21:33N 53°23' W 003°01'0 0.0
2016-Jul-25 20:33N 53°23' W 003°01'0 0.0
2016-Jul-25 19:33N 53°23' W 003°01'0 0.0
2016-Jul-25 18:33N 53°23' W 003°01'0 0.0
2016-Jul-25 17:33N 53°23' W 003°01'0 0.0
2016-Jul-25 16:33N 53°23' W 003°01'0 0.0
2016-Jul-25 15:33N 53°23' W 003°01'0 0.0
2016-Jul-25 14:33N 53°23' W 003°01'0 0.0
2016-Jul-25 13:33N 53°23' W 003°01'0 0.0
2016-Jul-25 12:33N 53°23' W 003°01'0 0.0
2016-Jul-25 11:33N 53°23' W 003°01'0 0.0
2016-Jul-25 10:33N 53°23' W 003°01'0 0.0
2016-Jul-25 09:33N 53°23' W 003°01'0 0.1
2016-Jul-25 08:33N 53°23' W 003°01'0 0.0
2016-Jul-25 07:33N 53°23' W 003°01'0 0.0
2016-Jul-25 06:33N 53°23' W 003°01'0 0.0
2016-Jul-25 05:33N 53°23' W 003°01'0 0.0
2016-Jul-25 04:34N 53°23' W 003°01'0 0.0
2016-Jul-25 03:33N 53°23' W 003°01'0 0.0
2016-Jul-25 02:33N 53°23' W 003°01'0 0.0
2016-Jul-25 01:33N 53°23' W 003°01'0 0.0
2016-Jul-25 00:33N 53°23' W 003°01'0 0.0
2016-Jul-24 23:34N 53°23' W 003°01'0 0.0
2016-Jul-24 22:33N 53°23' W 003°01'0 0.0
2016-Jul-24 21:33N 53°23' W 003°01'0 0.0
2016-Jul-24 20:33N 53°23' W 003°01'0 0.0
2016-Jul-24 19:33N 53°23' W 003°01'0 0.0
2016-Jul-24 18:33N 53°23' W 003°01'0 0.0
2016-Jul-24 17:33N 53°23' W 003°01'0 0.0
2016-Jul-24 16:34N 53°23' W 003°01'0 0.0
2016-Jul-24 15:33N 53°23' W 003°01'0 0.0
2016-Jul-24 14:33N 53°23' W 003°01'0 0.1
2016-Jul-24 13:33N 53°23' W 003°01'0 0.0
2016-Jul-24 12:33N 53°23' W 003°01'0 0.0
2016-Jul-24 11:33N 53°23' W 003°01'0 0.0
2016-Jul-24 10:33N 53°23' W 003°01'0 0.1
2016-Jul-24 09:33N 53°23' W 003°01'0 0.0
2016-Jul-24 08:33N 53°23' W 003°01'0 0.0
2016-Jul-24 07:33N 53°23' W 003°01'0 0.0
2016-Jul-24 06:33N 53°23' W 003°01'0 0.0
2016-Jul-24 05:33N 53°23' W 003°01'0 0.0
2016-Jul-24 04:33N 53°23' W 003°01'0 0.0
2016-Jul-24 03:33N 53°23' W 003°01'0 0.0
2016-Jul-24 02:33N 53°23' W 003°01'0 0.0
2016-Jul-24 01:33N 53°23' W 003°01'0 0.0
2016-Jul-24 00:33N 53°23' W 003°01'0 0.1
2016-Jul-23 23:33N 53°23' W 003°00'0 0.0
2016-Jul-23 22:33N 53°23' W 003°00'1 1.2
2016-Jul-23 21:33N 53°24' W 003°00'8 8.4
2016-Jul-23 20:33N 53°31' W 003°08'5 5.1
2016-Jul-23 19:33N 53°27' W 003°13'0 0.1
2016-Jul-23 18:33N 53°27' W 003°13'0 0.0
2016-Jul-23 17:33N 53°27' W 003°13'0 0.0
2016-Jul-23 16:33N 53°27' W 003°13'0 0.2
2016-Jul-23 15:33N 53°28' W 003°13'0 0.2
2016-Jul-23 14:33N 53°27' W 003°13'0 0.0
2016-Jul-23 13:33N 53°27' W 003°13'0 0.2
2016-Jul-23 12:33N 53°28' W 003°13'0 0.0
2016-Jul-23 11:33N 53°28' W 003°13'0 0.0
2016-Jul-23 10:33N 53°28' W 003°13'0 0.0
2016-Jul-23 09:33N 53°28' W 003°13'0 0.0
2016-Jul-23 08:33N 53°28' W 003°13'0 0.0
2016-Jul-23 07:33N 53°28' W 003°13'0 0.0
2016-Jul-23 06:33N 53°28' W 003°13'0 0.0
2016-Jul-23 04:33N 53°28' W 003°13'1 0.6
2016-Jul-23 03:33N 53°27' W 003°14'0 0.4
2016-Jul-23 02:33N 53°27' W 003°13'0 0.0
2016-Jul-23 01:33N 53°27' W 003°13'0 0.2
2016-Jul-23 00:33N 53°28' W 003°13'0 0.0
2016-Jul-22 23:33N 53°28' W 003°13'0 0.4
2016-Jul-22 22:33N 53°28' W 003°14'0 0.4
2016-Jul-22 21:34N 53°28' W 003°13'0 0.3
2016-Jul-22 20:33N 53°27' W 003°13'0 0.3
2016-Jul-22 19:33N 53°28' W 003°13'0 0.0
2016-Jul-22 18:33N 53°28' W 003°13'0 0.0
2016-Jul-22 17:33N 53°28' W 003°13'0 0.0
2016-Jul-22 16:33N 53°28' W 003°13'0 0.0
2016-Jul-22 15:33N 53°28' W 003°13'0 0.0
2016-Jul-22 14:33N 53°28' W 003°13'0 0.2
2016-Jul-22 13:33N 53°28' W 003°13'0 0.3
2016-Jul-22 12:33N 53°28' W 003°13'0 0.0
2016-Jul-22 11:33N 53°28' W 003°13'0 0.0
2016-Jul-22 10:33N 53°28' W 003°13'0 0.0
2016-Jul-22 09:33N 53°28' W 003°13'0 0.0
2016-Jul-22 08:33N 53°28' W 003°13'0 0.0
2016-Jul-22 07:33N 53°28' W 003°13'0 0.0
2016-Jul-22 05:34N 53°28' W 003°13'0 0.0
2016-Jul-22 04:33N 53°28' W 003°13'0 0.0
2016-Jul-22 03:33N 53°28' W 003°13'0 0.4
2016-Jul-22 02:33N 53°27' W 003°14'0 0.4
2016-Jul-22 01:33N 53°28' W 003°13'1 0.5
2016-Jul-22 00:33N 53°28' W 003°13'1 0.5
2016-Jul-21 23:33N 53°28' W 003°13'1 0.5
2016-Jul-21 22:33N 53°28' W 003°13'0 0.5
2016-Jul-21 21:33N 53°28' W 003°13'0 0.1
2016-Jul-21 20:33N 53°28' W 003°13'0 0.3
2016-Jul-21 19:33N 53°28' W 003°13'0 0.2
2016-Jul-21 18:34N 53°28' W 003°13'0 0.2
2016-Jul-21 17:33N 53°28' W 003°13'0 0.0
2016-Jul-21 16:33N 53°28' W 003°13'0 0.0
2016-Jul-21 15:33N 53°28' W 003°13'0 0.0
2016-Jul-21 14:33N 53°28' W 003°13'0 0.2
2016-Jul-21 13:33N 53°27' W 003°13'0 0.4
2016-Jul-21 12:33N 53°28' W 003°13'0 0.0
2016-Jul-21 11:33N 53°28' W 003°13'1 0.6
2016-Jul-21 10:33N 53°28' W 003°12'0 0.3
2016-Jul-21 09:33N 53°28' W 003°12'0 0.2
2016-Jul-21 08:33N 53°27' W 003°12'1 0.8
2016-Jul-21 07:33N 53°27' W 003°13'2 1.9
2016-Jul-21 06:33N 53°27' W 003°16'2 2.1
2016-Jul-21 05:33N 53°28' W 003°13'0 0.0
2016-Jul-21 04:34N 53°28' W 003°13'0 0.0
2016-Jul-21 03:33N 53°28' W 003°13'0 0.0
2016-Jul-21 02:33N 53°28' W 003°13'0 0.0
2016-Jul-21 01:33N 53°28' W 003°13'0 0.0
2016-Jul-21 00:34N 53°28' W 003°13'0 0.2
2016-Jul-20 23:33N 53°28' W 003°13'0 0.4
2016-Jul-20 22:33N 53°28' W 003°13'0 0.2
2016-Jul-20 21:33N 53°28' W 003°13'0 0.5
2016-Jul-20 20:33N 53°28' W 003°12'0 0.4
2016-Jul-20 19:33N 53°28' W 003°13'0 0.2
2016-Jul-20 18:33N 53°28' W 003°13'1 0.8
2016-Jul-20 17:33N 53°28' W 003°14'  
Track history (hours):
 
Tides and Currents Weather Stations Pressure Air Temp Water Temp Dewpoint Dewpoint Depression Visibility Wind Speed Wind Dir Waves Ship Positions

Martine P

Last reported at 2016-Jul-30 16:33 UTC. Time now 2016-Jul-30 16:52 UTC.
Position N 51°38' E 002°28'.

Length 27 m; draft 3 m.

Type: Tug. MMSI: 235091541.

Date/timePositionNaut miles runAvg speedWind from/ knotsBaromVisibWave heightAir tempDewpointWater temp
2016-Jul-30 16:33N 51°38' E 002°28'6 5.6
2016-Jul-30 15:33N 51°34' E 002°22'6 6.1
2016-Jul-30 14:33N 51°29' E 002°16'7 6.8
2016-Jul-30 13:34N 51°23' E 002°10'7 7.3
2016-Jul-30 12:33N 51°16' E 002°06'8 7.9
2016-Jul-30 11:33N 51°11' E 001°56'8 8.3
2016-Jul-30 10:33N 51°05' E 001°47'9 9.1
2016-Jul-30 09:33N 50°59' E 001°37'80 7.0
2016-Jul-29 22:08N 50°16' W 000°10'123 7.0
2016-Jul-29 04:33N 49°51' W 003°17'8 7.5
2016-Jul-29 03:29N 49°52' W 003°29'45 7.5
2016-Jul-28 21:34N 49°50' W 004°38'225 4.6
2016-Jul-26 20:24N 53°34' W 003°57'6 7.4
2016-Jul-26 19:33N 53°33' W 003°46'8 7.6
2016-Jul-26 18:34N 53°33' W 003°34'8 7.7
2016-Jul-26 17:33N 53°32' W 003°21'7 6.9
2016-Jul-26 16:33N 53°32' W 003°09'6 6.5
2016-Jul-26 15:33N 53°27' W 003°02'4 4.0
2016-Jul-26 14:33N 53°23' W 003°01'0 0.0
2016-Jul-26 13:33N 53°23' W 003°01'0 0.0
2016-Jul-26 12:34N 53°23' W 003°01'0 0.0
2016-Jul-26 11:33N 53°23' W 003°01'0 0.0
2016-Jul-26 10:33N 53°23' W 003°01'0 0.0
2016-Jul-26 09:33N 53°23' W 003°01'0 0.0
2016-Jul-26 08:33N 53°23' W 003°01'0 0.0
2016-Jul-26 07:33N 53°23' W 003°01'0 0.0
2016-Jul-26 06:33N 53°23' W 003°01'0 0.0
2016-Jul-26 05:33N 53°23' W 003°01'0 0.0
2016-Jul-26 04:33N 53°23' W 003°01'0 0.0
2016-Jul-26 03:33N 53°23' W 003°01'0 0.0
2016-Jul-26 02:33N 53°23' W 003°01'0 0.0
2016-Jul-26 01:33N 53°23' W 003°01'0 0.0
2016-Jul-26 00:33N 53°23' W 003°01'0 0.0
2016-Jul-25 23:33N 53°23' W 003°01'0 0.0
2016-Jul-25 22:33N 53°23' W 003°01'0 0.0
2016-Jul-25 21:33N 53°23' W 003°01'0 0.0
2016-Jul-25 20:33N 53°23' W 003°01'0 0.0
2016-Jul-25 19:33N 53°23' W 003°01'0 0.0
2016-Jul-25 18:33N 53°23' W 003°01'0 0.0
2016-Jul-25 17:33N 53°23' W 003°01'0 0.0
2016-Jul-25 16:33N 53°23' W 003°01'0 0.0
2016-Jul-25 15:33N 53°23' W 003°01'0 0.0
2016-Jul-25 14:33N 53°23' W 003°01'0 0.0
2016-Jul-25 13:33N 53°23' W 003°01'0 0.0
2016-Jul-25 12:33N 53°23' W 003°01'0 0.0
2016-Jul-25 11:33N 53°23' W 003°01'0 0.0
2016-Jul-25 10:33N 53°23' W 003°01'0 0.0
2016-Jul-25 09:33N 53°23' W 003°01'0 0.1
2016-Jul-25 08:33N 53°23' W 003°01'0 0.0
2016-Jul-25 07:33N 53°23' W 003°01'0 0.0
2016-Jul-25 06:33N 53°23' W 003°01'0 0.0
2016-Jul-25 05:33N 53°23' W 003°01'0 0.0
2016-Jul-25 04:34N 53°23' W 003°01'0 0.0
2016-Jul-25 03:33N 53°23' W 003°01'0 0.0
2016-Jul-25 02:33N 53°23' W 003°01'0 0.0
2016-Jul-25 01:33N 53°23' W 003°01'0 0.0
2016-Jul-25 00:33N 53°23' W 003°01'0 0.0
2016-Jul-24 23:34N 53°23' W 003°01'0 0.0
2016-Jul-24 22:33N 53°23' W 003°01'0 0.0
2016-Jul-24 21:33N 53°23' W 003°01'0 0.0
2016-Jul-24 20:33N 53°23' W 003°01'0 0.0
2016-Jul-24 19:33N 53°23' W 003°01'0 0.0
2016-Jul-24 18:33N 53°23' W 003°01'0 0.0
2016-Jul-24 17:33N 53°23' W 003°01'0 0.0
2016-Jul-24 16:34N 53°23' W 003°01'0 0.0
2016-Jul-24 15:33N 53°23' W 003°01'0 0.0
2016-Jul-24 14:33N 53°23' W 003°01'0 0.1
2016-Jul-24 13:33N 53°23' W 003°01'0 0.0
2016-Jul-24 12:33N 53°23' W 003°01'0 0.0
2016-Jul-24 11:33N 53°23' W 003°01'0 0.0
2016-Jul-24 10:33N 53°23' W 003°01'0 0.1
2016-Jul-24 09:33N 53°23' W 003°01'0 0.0
2016-Jul-24 08:33N 53°23' W 003°01'0 0.0
2016-Jul-24 07:33N 53°23' W 003°01'0 0.0
2016-Jul-24 06:33N 53°23' W 003°01'0 0.0
2016-Jul-24 05:33N 53°23' W 003°01'0 0.0
2016-Jul-24 04:33N 53°23' W 003°01'0 0.0
2016-Jul-24 03:33N 53°23' W 003°01'0 0.0
2016-Jul-24 02:33N 53°23' W 003°01'0 0.0
2016-Jul-24 01:33N 53°23' W 003°01'0 0.0
2016-Jul-24 00:33N 53°23' W 003°01'0 0.1
2016-Jul-23 23:33N 53°23' W 003°00'0 0.0
2016-Jul-23 22:33N 53°23' W 003°00'1 1.2
2016-Jul-23 21:33N 53°24' W 003°00'8 8.4
2016-Jul-23 20:33N 53°31' W 003°08'5 5.1
2016-Jul-23 19:33N 53°27' W 003°13'0 0.1
2016-Jul-23 18:33N 53°27' W 003°13'0 0.0
2016-Jul-23 17:33N 53°27' W 003°13'0 0.0
2016-Jul-23 16:33N 53°27' W 003°13'0 0.2
2016-Jul-23 15:33N 53°28' W 003°13'0 0.2
2016-Jul-23 14:33N 53°27' W 003°13'0 0.0
2016-Jul-23 13:33N 53°27' W 003°13'0 0.2
2016-Jul-23 12:33N 53°28' W 003°13'0 0.0
2016-Jul-23 11:33N 53°28' W 003°13'0 0.0
2016-Jul-23 10:33N 53°28' W 003°13'0 0.0
2016-Jul-23 09:33N 53°28' W 003°13'0 0.0
2016-Jul-23 08:33N 53°28' W 003°13'0 0.0
2016-Jul-23 07:33N 53°28' W 003°13'0 0.0
2016-Jul-23 06:33N 53°28' W 003°13'0 0.0
2016-Jul-23 04:33N 53°28' W 003°13'1 0.6
2016-Jul-23 03:33N 53°27' W 003°14'0 0.4
2016-Jul-23 02:33N 53°27' W 003°13'0 0.0
2016-Jul-23 01:33N 53°27' W 003°13'0 0.2
2016-Jul-23 00:33N 53°28' W 003°13'0 0.0
2016-Jul-22 23:33N 53°28' W 003°13'0 0.4
2016-Jul-22 22:33N 53°28' W 003°14'0 0.4
2016-Jul-22 21:34N 53°28' W 003°13'0 0.3
2016-Jul-22 20:33N 53°27' W 003°13'0 0.3
2016-Jul-22 19:33N 53°28' W 003°13'0 0.0
2016-Jul-22 18:33N 53°28' W 003°13'0 0.0
2016-Jul-22 17:33N 53°28' W 003°13'0 0.0
2016-Jul-22 16:33N 53°28' W 003°13'0 0.0
2016-Jul-22 15:33N 53°28' W 003°13'0 0.0
2016-Jul-22 14:33N 53°28' W 003°13'0 0.2
2016-Jul-22 13:33N 53°28' W 003°13'0 0.3
2016-Jul-22 12:33N 53°28' W 003°13'0 0.0
2016-Jul-22 11:33N 53°28' W 003°13'0 0.0
2016-Jul-22 10:33N 53°28' W 003°13'0 0.0
2016-Jul-22 09:33N 53°28' W 003°13'0 0.0
2016-Jul-22 08:33N 53°28' W 003°13'0 0.0
2016-Jul-22 07:33N 53°28' W 003°13'0 0.0
2016-Jul-22 05:34N 53°28' W 003°13'0 0.0
2016-Jul-22 04:33N 53°28' W 003°13'0 0.0
2016-Jul-22 03:33N 53°28' W 003°13'0 0.4
2016-Jul-22 02:33N 53°27' W 003°14'0 0.4
2016-Jul-22 01:33N 53°28' W 003°13'1 0.5
2016-Jul-22 00:33N 53°28' W 003°13'1 0.5
2016-Jul-21 23:33N 53°28' W 003°13'1 0.5
2016-Jul-21 22:33N 53°28' W 003°13'0 0.5
2016-Jul-21 21:33N 53°28' W 003°13'0 0.1
2016-Jul-21 20:33N 53°28' W 003°13'0 0.3
2016-Jul-21 19:33N 53°28' W 003°13'0 0.2
2016-Jul-21 18:34N 53°28' W 003°13'0 0.2
2016-Jul-21 17:33N 53°28' W 003°13'0 0.0
2016-Jul-21 16:33N 53°28' W 003°13'0 0.0
2016-Jul-21 15:33N 53°28' W 003°13'0 0.0
2016-Jul-21 14:33N 53°28' W 003°13'0 0.2
2016-Jul-21 13:33N 53°27' W 003°13'0 0.4
2016-Jul-21 12:33N 53°28' W 003°13'0 0.0
2016-Jul-21 11:33N 53°28' W 003°13'1 0.6
2016-Jul-21 10:33N 53°28' W 003°12'0 0.3
2016-Jul-21 09:33N 53°28' W 003°12'0 0.2
2016-Jul-21 08:33N 53°27' W 003°12'1 0.8
2016-Jul-21 07:33N 53°27' W 003°13'2 1.9
2016-Jul-21 06:33N 53°27' W 003°16'2 2.1
2016-Jul-21 05:33N 53°28' W 003°13'0 0.0
2016-Jul-21 04:34N 53°28' W 003°13'0 0.0
2016-Jul-21 03:33N 53°28' W 003°13'0 0.0
2016-Jul-21 02:33N 53°28' W 003°13'0 0.0
2016-Jul-21 01:33N 53°28' W 003°13'0 0.0
2016-Jul-21 00:34N 53°28' W 003°13'0 0.2
2016-Jul-20 23:33N 53°28' W 003°13'0 0.4
2016-Jul-20 22:33N 53°28' W 003°13'0 0.2
2016-Jul-20 21:33N 53°28' W 003°13'0 0.5
2016-Jul-20 20:33N 53°28' W 003°12'0 0.4
2016-Jul-20 19:33N 53°28' W 003°13'0 0.2
2016-Jul-20 18:33N 53°28' W 003°13'1 0.8
2016-Jul-20 17:33N 53°28' W 003°14'  

Dump ship's entire track history